Woodlawn, Ohio
Current Conditions -  °F | °C
As of 2:53 AM on Tuesday 21 Oct 2014 (Local Time) from KHAO Reporting Station
Overcast Overcast  
Wind Chill: 53°   Ceiling: 6500
Heat Index: 53°   Visibility: 10mi
Dew Point: 50°   Wind: 3mph
Humidity: 89%   Direction: 290°WNW
Pressure: 29.93"   Gusts: NA
Location:  39.236°N, 84.4599°W
Report Text: KHAO 210653Z AUTO 29003KT 10SM OVC065 12/10 A2993 RMK AO2 SLP135 T01170100
Loading
Personal Weather Stations






























Interactive Weather Map
Tropical Storm Tracking
New forecast layout! Learn more

10-Day Weather Forecast

Advertisements
Track Severe Weather on mobile